createdAt,value
2023-02-07T00:00:00.281Z,85
2023-02-07T00:05:00.184Z,85
2023-02-07T00:10:00.260Z,85
2023-02-07T00:15:00.188Z,85
2023-02-07T00:20:00.212Z,85
2023-02-07T00:25:00.234Z,85
2023-02-07T00:30:00.287Z,85
2023-02-07T00:35:00.235Z,84
2023-02-07T00:40:00.261Z,84
2023-02-07T00:45:00.294Z,84
2023-02-07T00:50:00.256Z,84
2023-02-07T00:55:00.243Z,84
2023-02-07T01:00:00.283Z,84
2023-02-07T01:05:00.282Z,84
2023-02-07T01:10:00.280Z,83
2023-02-07T01:15:00.235Z,83
2023-02-07T01:20:00.445Z,83
2023-02-07T01:25:00.147Z,83
2023-02-07T01:30:00.303Z,83
2023-02-07T01:35:00.251Z,84
2023-02-07T01:40:00.159Z,84
2023-02-07T01:45:00.226Z,84
2023-02-07T01:50:00.241Z,84
2023-02-07T01:55:00.143Z,84
2023-02-07T02:00:00.263Z,84
2023-02-07T02:05:00.261Z,84
2023-02-07T02:10:00.288Z,84
2023-02-07T02:15:00.240Z,84
2023-02-07T02:20:00.269Z,84
2023-02-07T02:25:00.149Z,84
2023-02-07T02:30:00.241Z,83
2023-02-07T02:35:00.234Z,84
2023-02-07T02:40:00.273Z,83
2023-02-07T02:45:00.134Z,83
2023-02-07T02:50:00.239Z,83
2023-02-07T02:55:00.142Z,83
2023-02-07T03:00:00.301Z,83
2023-02-07T03:05:00.295Z,83
2023-02-07T03:10:00.235Z,83
2023-02-07T03:15:00.218Z,83
2023-02-07T03:20:00.255Z,83
2023-02-07T03:25:00.152Z,83
2023-02-07T03:30:00.296Z,83
2023-02-07T03:35:00.134Z,83
2023-02-07T03:40:00.242Z,83
2023-02-07T03:45:00.127Z,83
2023-02-07T03:50:00.251Z,83
2023-02-07T03:55:00.229Z,83
2023-02-07T04:00:00.274Z,83
2023-02-07T04:05:00.248Z,83
2023-02-07T04:10:00.881Z,83
2023-02-07T04:15:00.303Z,83
2023-02-07T04:20:00.332Z,83
2023-02-07T04:25:00.351Z,83
2023-02-07T04:30:00.246Z,83
2023-02-07T04:35:00.302Z,83
2023-02-07T04:40:00.270Z,83
2023-02-07T04:45:00.242Z,83
2023-02-07T04:50:00.275Z,83
2023-02-07T04:55:00.272Z,83
2023-02-07T05:00:00.298Z,83
2023-02-07T05:05:00.233Z,83
2023-02-07T05:10:00.310Z,83
2023-02-07T05:15:00.291Z,83
2023-02-07T05:20:00.272Z,83
2023-02-07T05:25:00.297Z,83
2023-02-07T05:30:00.310Z,83
2023-02-07T05:35:00.252Z,83
2023-02-07T05:40:00.244Z,83
2023-02-07T05:45:00.286Z,83
2023-02-07T05:50:00.308Z,83
2023-02-07T05:55:00.295Z,83
2023-02-07T06:00:00.233Z,83
2023-02-07T06:05:00.245Z,83
2023-02-07T06:10:00.266Z,83
2023-02-07T06:15:00.343Z,83
2023-02-07T06:20:00.255Z,83
2023-02-07T06:25:00.264Z,83
2023-02-07T06:30:00.240Z,83
2023-02-07T06:35:00.240Z,83
2023-02-07T06:40:00.306Z,83
2023-02-07T06:45:00.363Z,83
2023-02-07T06:50:00.176Z,83
2023-02-07T06:55:00.257Z,83
2023-02-07T07:00:05.219Z,83
2023-02-07T07:05:00.267Z,83
2023-02-07T07:10:00.467Z,83
2023-02-07T07:15:00.171Z,83
2023-02-07T07:20:00.302Z,83
2023-02-07T07:25:00.313Z,83
2023-02-07T07:30:00.276Z,83
2023-02-07T07:35:00.331Z,83
2023-02-07T07:40:00.294Z,83
2023-02-07T07:45:00.246Z,83
2023-02-07T07:50:00.258Z,83
2023-02-07T07:55:00.259Z,83
2023-02-07T08:00:00.338Z,83
2023-02-07T08:05:00.179Z,83
2023-02-07T08:10:00.265Z,83
2023-02-07T08:15:05.158Z,83
2023-02-07T08:20:00.249Z,83
2023-02-07T08:25:00.270Z,83
2023-02-07T08:30:00.511Z,83
2023-02-07T08:35:00.292Z,84
2023-02-07T08:40:00.272Z,84
2023-02-07T08:45:00.322Z,84
2023-02-07T08:50:00.196Z,84
2023-02-07T08:55:00.317Z,84
2023-02-07T09:00:00.296Z,84
2023-02-07T09:05:00.229Z,84
2023-02-07T09:10:00.292Z,84
2023-02-07T09:15:00.178Z,84
2023-02-07T09:20:00.296Z,84
2023-02-07T09:25:00.299Z,84
2023-02-07T09:30:00.323Z,84
2023-02-07T09:35:00.272Z,84
2023-02-07T09:40:00.189Z,84
2023-02-07T09:45:00.499Z,84
2023-02-07T09:50:00.248Z,84
2023-02-07T09:55:00.234Z,84
2023-02-07T10:00:00.288Z,84
2023-02-07T10:05:00.265Z,84
2023-02-07T10:10:00.910Z,84
2023-02-07T10:15:00.188Z,84
2023-02-07T10:20:05.284Z,85
2023-02-07T10:25:00.272Z,85
2023-02-07T10:30:00.254Z,85
2023-02-07T10:35:00.233Z,85
2023-02-07T10:40:00.308Z,85
2023-02-07T10:45:00.287Z,85
2023-02-07T10:50:00.337Z,84
2023-02-07T10:55:00.253Z,84
2023-02-07T11:00:05.182Z,84
2023-02-07T11:05:00.226Z,84
2023-02-07T11:10:00.274Z,84
2023-02-07T11:15:00.317Z,84
2023-02-07T11:20:00.259Z,84
2023-02-07T11:25:00.315Z,84
2023-02-07T11:30:00.270Z,83
2023-02-07T11:35:00.186Z,82
2023-02-07T11:40:00.272Z,82
2023-02-07T11:45:00.250Z,82
2023-02-07T11:50:00.270Z,82
2023-02-07T11:55:00.287Z,81
2023-02-07T12:00:05.190Z,81
2023-02-07T12:05:00.246Z,80
2023-02-07T12:10:00.292Z,80
2023-02-07T12:15:00.260Z,80
2023-02-07T12:20:02.308Z,79
2023-02-07T12:25:00.290Z,78
2023-02-07T12:30:00.245Z,78
2023-02-07T12:35:00.301Z,78
2023-02-07T12:40:00.279Z,78
2023-02-07T12:45:00.280Z,77
2023-02-07T12:50:00.256Z,78
2023-02-07T12:55:00.232Z,77
2023-02-07T13:00:00.256Z,77
2023-02-07T13:05:00.238Z,76
2023-02-07T13:10:00.732Z,76
2023-02-07T13:15:00.218Z,76
2023-02-07T13:20:00.294Z,76
2023-02-07T13:25:00.240Z,76
2023-02-07T13:30:00.308Z,76
2023-02-07T13:35:00.172Z,75
2023-02-07T13:40:00.280Z,75
2023-02-07T13:45:00.183Z,75
2023-02-07T13:50:00.278Z,73
2023-02-07T13:55:00.290Z,73
2023-02-07T14:00:00.327Z,72
2023-02-07T14:05:00.234Z,72
2023-02-07T14:10:00.278Z,72
2023-02-07T14:15:02.893Z,72
2023-02-07T14:20:00.250Z,71
2023-02-07T14:25:00.193Z,71
2023-02-07T14:30:00.309Z,71
2023-02-07T14:35:00.206Z,71
2023-02-07T14:40:01.218Z,71
2023-02-07T14:45:00.238Z,69
2023-02-07T14:50:00.384Z,70
2023-02-07T14:55:00.240Z,70
2023-02-07T15:00:00.300Z,70
2023-02-07T15:05:00.303Z,70
2023-02-07T15:10:00.288Z,69
2023-02-07T15:15:00.216Z,69
2023-02-07T15:20:00.277Z,69
2023-02-07T15:25:00.243Z,69
2023-02-07T15:30:00.263Z,69
2023-02-07T15:35:00.251Z,69
2023-02-07T15:40:00.283Z,69
2023-02-07T15:45:00.295Z,70
2023-02-07T15:50:00.296Z,70
2023-02-07T15:55:00.221Z,70
2023-02-07T16:00:00.237Z,70
2023-02-07T16:05:00.252Z,70
2023-02-07T16:10:00.263Z,70
2023-02-07T16:15:00.254Z,70
2023-02-07T16:20:00.226Z,70
2023-02-07T16:25:00.296Z,70
2023-02-07T16:30:00.314Z,70
2023-02-07T16:35:00.542Z,70
2023-02-07T16:40:00.393Z,71
2023-02-07T16:45:00.227Z,71
2023-02-07T16:50:00.284Z,71
2023-02-07T16:55:00.204Z,71
2023-02-07T17:00:00.305Z,71
2023-02-07T17:05:00.223Z,71
2023-02-07T17:10:00.287Z,71
2023-02-07T17:15:00.341Z,71
2023-02-07T17:20:00.287Z,72
2023-02-07T17:25:00.289Z,72
2023-02-07T17:30:00.343Z,72
2023-02-07T17:35:00.216Z,72
2023-02-07T17:40:00.213Z,72
2023-02-07T17:45:00.257Z,73
2023-02-07T17:50:00.276Z,73
2023-02-07T17:55:00.306Z,73
2023-02-07T18:00:00.291Z,73
2023-02-07T18:05:00.228Z,73
2023-02-07T18:10:00.279Z,73
2023-02-07T18:15:00.232Z,73
2023-02-07T18:20:00.271Z,74
2023-02-07T18:25:00.256Z,74
2023-02-07T18:30:00.259Z,74
2023-02-07T18:35:00.244Z,74
2023-02-07T18:40:00.269Z,74
2023-02-07T18:45:00.221Z,74
2023-02-07T18:50:00.215Z,74
2023-02-07T18:55:00.188Z,75
2023-02-07T19:00:00.435Z,75
2023-02-07T19:05:00.232Z,75
2023-02-07T19:10:00.411Z,75
2023-02-07T19:15:00.314Z,75
2023-02-07T19:20:00.301Z,75
2023-02-07T19:25:00.181Z,75
2023-02-07T19:30:00.277Z,76
2023-02-07T19:35:00.248Z,76
2023-02-07T19:40:00.282Z,76
2023-02-07T19:45:00.283Z,76
2023-02-07T19:50:00.269Z,76
2023-02-07T19:55:00.282Z,76
2023-02-07T20:00:00.279Z,76
2023-02-07T20:05:00.237Z,77
2023-02-07T20:10:00.258Z,77
2023-02-07T20:15:00.318Z,77
2023-02-07T20:20:00.257Z,77
2023-02-07T20:25:00.188Z,77
2023-02-07T20:30:00.231Z,77
2023-02-07T20:35:00.253Z,77
2023-02-07T20:40:00.253Z,77
2023-02-07T20:45:00.227Z,77
2023-02-07T20:50:00.260Z,77
2023-02-07T20:55:00.884Z,77
2023-02-07T21:00:00.290Z,77
2023-02-07T21:05:00.304Z,77
2023-02-07T21:10:00.299Z,77
2023-02-07T21:15:00.298Z,78
2023-02-07T21:20:00.418Z,78
2023-02-07T21:25:00.270Z,78
2023-02-07T21:30:00.363Z,78
2023-02-07T21:35:00.192Z,78
2023-02-07T21:40:00.368Z,78
2023-02-07T21:45:00.221Z,78
2023-02-07T21:50:00.291Z,78
2023-02-07T21:55:00.243Z,78
2023-02-07T22:00:00.286Z,78
2023-02-07T22:05:00.140Z,78
2023-02-07T22:10:00.250Z,78
2023-02-07T22:15:00.312Z,78
2023-02-07T22:20:00.258Z,78
2023-02-07T22:25:00.170Z,78
2023-02-07T22:30:00.286Z,78
2023-02-07T22:35:00.178Z,78
2023-02-07T22:40:00.268Z,79
2023-02-07T22:45:00.190Z,79
2023-02-07T22:50:00.256Z,79
2023-02-07T22:55:00.221Z,79
2023-02-07T23:00:00.309Z,79
2023-02-07T23:05:00.130Z,79
2023-02-07T23:10:00.245Z,79
2023-02-07T23:15:00.215Z,79
2023-02-07T23:20:00.246Z,79
2023-02-07T23:25:00.235Z,79
2023-02-07T23:30:00.254Z,79
2023-02-07T23:35:00.179Z,79
2023-02-07T23:40:00.233Z,79
2023-02-07T23:45:00.150Z,79
2023-02-07T23:50:00.256Z,79
2023-02-07T23:55:00.189Z,79
